Time;durP1;ratioP1;P1;durP2;ratioP2;P2;SDS_P1;SDS_P2;PMS_P1;PMS_P2;Temp;Humidity;BMP_temperature;BMP_pressure;BME280_temperature;BME280_humidity;BME280_pressure;Samples;Min_cycle;Max_cycle;Signal;HPM_P1;HPM_P2
2024/02/15 00:02:15;;;;;;;1.23;1.13;;;9.30;99.90;9.20;100824.00;;;;4932471;28;115479;-70
2024/02/15 00:04:43;;;;;;;2.30;1.57;;;9.30;99.90;9.20;100837.00;;;;4930054;28;111255;-73
2024/02/15 00:07:09;;;;;;;1.93;1.60;;;9.30;99.90;9.20;100833.00;;;;4928079;28;87768;-71
2024/02/15 00:09:35;;;;;;;1.50;1.40;;;9.30;99.90;9.20;100837.00;;;;4947910;28;88969;-71
2024/02/15 00:12:00;;;;;;;1.47;1.10;;;9.30;99.90;9.20;100829.00;;;;4932831;28;88057;-73
2024/02/15 00:14:28;;;;;;;0.93;0.83;;;9.20;99.90;9.20;100825.00;;;;4930260;28;116999;-74
2024/02/15 00:16:54;;;;;;;2.47;1.40;;;9.30;99.90;9.20;100829.00;;;;4935548;28;87806;-72
2024/02/15 00:19:21;;;;;;;1.17;1.07;;;9.30;99.90;9.20;100833.00;;;;4933413;28;88315;-70
2024/02/15 00:21:47;;;;;;;1.20;1.10;;;9.20;99.90;9.20;100837.00;;;;4931415;28;87666;-73
2024/02/15 00:24:16;;;;;;;3.00;1.30;;;9.20;99.90;9.20;100838.00;;;;4934039;28;88344;-73
2024/02/15 00:26:42;;;;;;;1.63;1.10;;;9.30;99.90;9.20;100836.00;;;;4918935;28;88072;-71
2024/02/15 00:29:08;;;;;;;0.73;0.73;;;9.30;99.90;9.20;100831.00;;;;4933107;28;88585;-72
2024/02/15 00:31:35;;;;;;;0.97;0.97;;;9.30;99.90;9.30;100828.00;;;;4931431;28;102977;-72
2024/02/15 00:34:02;;;;;;;1.53;0.97;;;9.40;99.90;9.30;100821.00;;;;4928852;28;88589;-72
2024/02/15 00:36:29;;;;;;;1.20;1.10;;;9.40;99.90;9.30;100826.00;;;;4931265;28;87898;-72
2024/02/15 00:38:55;;;;;;;0.80;0.80;;;9.40;99.90;9.30;100821.00;;;;4930277;28;87681;-73
2024/02/15 00:41:21;;;;;;;0.70;0.70;;;9.40;99.90;9.30;100819.00;;;;4929293;28;87967;-72
2024/02/15 00:43:47;;;;;;;0.87;0.80;;;9.40;99.90;9.40;100815.00;;;;4932781;28;88062;-72
2024/02/15 00:46:14;;;;;;;1.17;0.77;;;9.50;99.90;9.40;100816.00;;;;4929957;28;87067;-72
2024/02/15 00:48:40;;;;;;;4.13;0.93;;;9.50;99.90;9.40;100816.00;;;;4930529;28;87850;-71
2024/02/15 00:51:06;;;;;;;1.07;0.90;;;9.50;99.90;9.50;100820.00;;;;4933524;28;88659;-70
2024/02/15 00:53:32;;;;;;;0.70;0.70;;;9.50;99.90;9.50;100816.00;;;;4933730;28;88910;-70
2024/02/15 00:55:58;;;;;;;0.93;0.60;;;9.50;99.90;9.50;100815.00;;;;4933112;28;99099;-70
2024/02/15 00:58:24;;;;;;;0.87;0.70;;;9.60;99.90;9.50;100828.00;;;;4913876;28;87778;-69
2024/02/15 01:00:53;;;;;;;1.60;0.73;;;9.60;99.90;9.60;100818.00;;;;4926719;28;89090;-69
2024/02/15 01:03:19;;;;;;;1.97;0.90;;;9.70;99.90;9.60;100816.00;;;;4931212;28;88241;-70
2024/02/15 01:05:45;;;;;;;0.67;0.53;;;9.70;99.90;9.60;100812.00;;;;4937086;28;89802;-70
2024/02/15 01:08:11;;;;;;;0.50;0.50;;;9.80;99.90;9.70;100811.00;;;;4935553;28;99794;-71
2024/02/15 01:10:37;;;;;;;1.57;1.00;;;9.70;99.90;9.70;100810.00;;;;4934732;28;104671;-69
2024/02/15 01:13:03;;;;;;;0.60;0.60;;;9.70;99.90;9.70;100811.00;;;;4930285;28;88285;-68
2024/02/15 01:15:29;;;;;;;1.10;0.53;;;9.70;99.90;9.70;100807.00;;;;4927639;28;110557;-69
2024/02/15 01:17:55;;;;;;;2.30;0.90;;;9.80;99.90;9.70;100813.00;;;;4928582;28;89345;-69
2024/02/15 01:20:21;;;;;;;0.60;0.60;;;9.80;99.90;9.70;100804.00;;;;4931899;28;88118;-69
2024/02/15 01:22:46;;;;;;;0.97;0.87;;;9.80;99.90;9.70;100813.00;;;;4936138;28;88625;-69
2024/02/15 01:25:12;;;;;;;0.53;0.53;;;9.80;99.90;9.70;100821.00;;;;4934193;28;101508;-69
2024/02/15 01:27:38;;;;;;;0.83;0.83;;;9.80;99.90;9.70;100811.00;;;;4932441;28;87875;-71
2024/02/15 01:30:05;;;;;;;0.80;0.80;;;9.80;99.90;9.70;100819.00;;;;4932574;28;117450;-71
2024/02/15 01:32:31;;;;;;;0.50;0.37;;;9.90;99.90;9.70;100808.00;;;;4928119;28;88577;-71
2024/02/15 01:34:56;;;;;;;1.20;1.03;;;9.70;99.90;9.70;100813.00;;;;4934601;28;110298;-70
2024/02/15 01:37:22;;;;;;;1.20;0.80;;;9.80;99.90;9.70;100814.00;;;;4930848;28;88029;-71
2024/02/15 01:39:49;;;;;;;0.90;0.83;;;9.80;99.90;9.70;100827.00;;;;4930531;28;117541;-72
2024/02/15 01:42:15;;;;;;;1.43;0.63;;;9.70;99.90;9.70;100815.00;;;;4928736;28;88955;-72
2024/02/15 01:44:43;;;;;;;2.00;0.63;;;9.70;99.90;9.60;100815.00;;;;4932160;28;110449;-72
2024/02/15 01:47:10;;;;;;;0.90;0.90;;;9.70;99.90;9.60;100817.00;;;;4930616;28;87791;-72
2024/02/15 01:49:36;;;;;;;1.60;0.77;;;9.70;99.90;9.60;100818.00;;;;4926813;28;105574;-72
2024/02/15 01:52:04;;;;;;;1.80;1.20;;;9.70;99.90;9.60;100817.00;;;;4927711;28;99908;-69
2024/02/15 01:54:31;;;;;;;0.63;0.60;;;9.70;99.90;9.60;100810.00;;;;4944611;28;100957;-70
2024/02/15 01:56:57;;;;;;;0.60;0.60;;;9.70;99.90;9.60;100807.00;;;;4930689;28;87842;-70
2024/02/15 01:59:25;;;;;;;1.10;0.90;;;9.70;99.90;9.60;100809.00;;;;4928704;28;118332;-70
2024/02/15 02:01:50;;;;;;;1.80;1.20;;;9.70;99.90;9.60;100803.00;;;;4930933;28;117388;-70
2024/02/15 02:04:16;;;;;;;0.67;0.67;;;9.70;99.90;9.60;100806.00;;;;4928038;28;111475;-70
2024/02/15 02:06:42;;;;;;;0.67;0.50;;;9.60;99.90;9.60;100799.00;;;;4925893;28;89001;-70
2024/02/15 02:09:14;;;;;;;0.80;0.80;;;9.70;99.90;9.60;100801.00;;;;4928484;28;118154;-70
2024/02/15 02:11:42;;;;;;;1.17;1.07;;;9.70;99.90;9.60;100798.00;;;;4928105;28;88468;-69
2024/02/15 02:14:07;;;;;;;1.20;0.80;;;9.10;99.90;9.60;100794.00;;;;4927261;28;88058;-69
2024/02/15 02:16:35;;;;;;;1.10;1.00;;;9.60;99.90;9.60;100793.00;;;;4932496;28;88095;-70
2024/02/15 02:19:01;;;;;;;1.57;1.00;;;9.60;99.90;9.60;100788.00;;;;4924509;28;89063;-69
2024/02/15 02:21:28;;;;;;;1.10;0.90;;;9.70;99.90;9.60;100792.00;;;;4927617;28;116897;-70
2024/02/15 02:23:57;;;;;;;1.77;1.23;;;9.70;99.90;9.60;100791.00;;;;4932503;28;111125;-69
2024/02/15 02:26:25;;;;;;;0.73;0.63;;;9.70;99.90;9.60;100786.00;;;;4928870;28;87785;-70
2024/02/15 02:28:54;;;;;;;1.17;0.93;;;9.70;99.90;9.60;100785.00;;;;4928424;28;93519;-71
2024/02/15 02:31:21;;;;;;;1.13;1.03;;;9.60;99.90;9.60;100786.00;;;;4930149;28;88806;-72
2024/02/15 02:33:54;;;;;;;1.23;1.00;;;9.70;99.90;9.70;100793.00;;;;4928411;28;87871;-72
2024/02/15 02:36:20;;;;;;;0.90;0.67;;;9.80;99.90;9.70;100787.00;;;;4926880;28;87942;-71
2024/02/15 02:38:46;;;;;;;1.00;0.90;;;9.70;99.90;9.70;100789.00;;;;4923689;28;113868;-71
2024/02/15 02:41:14;;;;;;;1.03;0.80;;;9.80;99.90;9.70;100786.00;;;;4926810;28;90349;-71
2024/02/15 02:43:40;;;;;;;0.93;0.53;;;9.80;99.90;9.70;100791.00;;;;4928889;28;88599;-71
2024/02/15 02:46:10;;;;;;;1.20;0.77;;;9.80;99.90;9.70;100784.00;;;;4928112;28;87969;-71
2024/02/15 02:48:36;;;;;;;2.27;1.30;;;9.70;99.90;9.70;100797.00;;;;4936424;28;89524;-71
2024/02/15 02:51:02;;;;;;;1.00;0.70;;;9.70;99.90;9.70;100785.00;;;;4932539;28;105138;-72
2024/02/15 02:53:28;;;;;;;1.43;1.20;;;9.80;99.90;9.70;100793.00;;;;4924741;28;102292;-71
2024/02/15 02:55:56;;;;;;;1.20;0.83;;;9.70;99.90;9.70;100785.00;;;;4930894;28;109257;-71
2024/02/15 02:58:23;;;;;;;4.80;0.83;;;9.80;99.90;9.70;100784.00;;;;4926747;28;108060;-71
2024/02/15 03:00:49;;;;;;;1.10;0.70;;;9.80;99.90;9.70;100785.00;;;;4929873;28;89125;-71
2024/02/15 03:03:16;;;;;;;2.60;0.83;;;9.80;99.90;9.70;100786.00;;;;4927064;28;89657;-72
2024/02/15 03:05:42;;;;;;;1.17;0.47;;;9.80;99.90;9.80;100784.00;;;;4930208;28;88064;-71
2024/02/15 03:08:12;;;;;;;0.93;0.60;;;9.80;99.90;9.80;100789.00;;;;4927243;28;89112;-72
2024/02/15 03:10:38;;;;;;;2.80;1.10;;;9.80;99.90;9.80;100793.00;;;;4930035;28;88600;-72
2024/02/15 03:13:05;;;;;;;0.80;0.50;;;9.80;99.90;9.80;100790.00;;;;4933542;28;90068;-72
2024/02/15 03:15:32;;;;;;;1.13;0.97;;;9.90;99.90;9.80;100789.00;;;;4933507;28;88119;-72
2024/02/15 03:17:58;;;;;;;0.90;0.77;;;9.90;99.90;9.80;100788.00;;;;4934377;28;88124;-72
2024/02/15 03:20:24;;;;;;;0.77;0.60;;;9.90;99.90;9.90;100796.00;;;;4933999;28;88741;-72
2024/02/15 03:22:57;;;;;;;0.87;0.60;;;10.00;99.90;9.90;100790.00;;;;4947823;28;108514;-73
2024/02/15 03:25:28;;;;;;;2.93;1.13;;;9.90;99.90;9.90;100793.00;;;;4931840;28;87900;-73
2024/02/15 03:27:58;;;;;;;0.77;0.60;;;9.90;99.90;9.90;100780.00;;;;4936213;28;90305;-72
2024/02/15 03:30:26;;;;;;;1.53;0.80;;;9.90;99.90;9.90;100781.00;;;;4931286;28;87880;-73
2024/02/15 03:32:52;;;;;;;0.67;0.67;;;10.00;99.90;9.90;100775.00;;;;4929646;28;87829;-74
2024/02/15 03:35:24;;;;;;;0.60;0.60;;;10.00;99.90;9.90;100787.00;;;;4933072;28;87816;-74
2024/02/15 03:37:51;;;;;;;0.70;0.70;;;10.00;99.90;9.90;100783.00;;;;4931112;28;97196;-73
2024/02/15 03:40:18;;;;;;;0.87;0.53;;;10.00;99.90;9.90;100788.00;;;;4932972;28;87645;-71
2024/02/15 03:42:43;;;;;;;0.90;0.70;;;10.00;99.90;9.90;100791.00;;;;4935239;28;88860;-72
2024/02/15 03:45:10;;;;;;;0.60;0.60;;;10.00;99.90;9.90;100796.00;;;;4930045;28;108951;-71
2024/02/15 03:47:37;;;;;;;1.37;0.80;;;10.00;99.90;9.90;100786.00;;;;4937060;28;88063;-70
2024/02/15 03:50:09;;;;;;;3.10;0.97;;;10.00;99.90;9.90;100801.00;;;;4935750;28;117905;-72
2024/02/15 03:52:35;;;;;;;0.70;0.70;;;10.00;99.90;9.90;100789.00;;;;4932983;28;89047;-70
2024/02/15 03:55:02;;;;;;;1.43;0.83;;;10.00;99.90;9.90;100798.00;;;;4934696;28;98343;-70
2024/02/15 03:57:28;;;;;;;0.50;0.50;;;10.00;99.90;9.90;100797.00;;;;4930336;28;93391;-70
2024/02/15 03:59:56;;;;;;;1.03;0.80;;;10.00;99.90;9.90;100799.00;;;;4931162;28;88450;-71
2024/02/15 04:02:26;;;;;;;0.80;0.60;;;10.00;99.90;9.90;100791.00;;;;4934736;28;86985;-70
2024/02/15 04:04:55;;;;;;;0.90;0.60;;;10.00;99.90;9.90;100798.00;;;;4931391;28;87970;-72
2024/02/15 04:07:23;;;;;;;1.03;0.60;;;10.00;99.90;9.90;100805.00;;;;4931887;28;88445;-72
2024/02/15 04:09:49;;;;;;;0.83;0.67;;;10.00;99.90;10.00;100809.00;;;;4927968;28;90195;-73
2024/02/15 04:12:16;;;;;;;0.47;0.47;;;10.00;99.90;9.90;100798.00;;;;4927693;28;89500;-74
2024/02/15 04:14:47;;;;;;;0.60;0.60;;;10.10;99.90;9.90;100799.00;;;;4935283;28;87887;-75
2024/02/15 04:17:16;;;;;;;0.83;0.83;;;10.00;99.90;9.90;100797.00;;;;4935562;28;87744;-75
2024/02/15 04:19:46;;;;;;;1.87;0.90;;;10.00;99.90;9.90;100801.00;;;;4932592;28;87978;-75
2024/02/15 04:22:16;;;;;;;1.60;0.90;;;10.00;99.90;9.90;100797.00;;;;4930587;28;89279;-73
2024/02/15 04:24:45;;;;;;;1.77;1.00;;;10.10;99.90;9.90;100797.00;;;;4930086;28;88071;-72
2024/02/15 04:27:14;;;;;;;1.43;1.30;;;10.00;99.90;10.00;100805.00;;;;4931247;28;89645;-75
2024/02/15 04:29:41;;;;;;;0.70;0.60;;;10.10;99.90;9.90;100797.00;;;;4927984;28;87856;-72
2024/02/15 04:32:11;;;;;;;0.97;0.87;;;10.00;99.90;9.90;100795.00;;;;4932072;28;88026;-72
2024/02/15 04:34:37;;;;;;;1.03;0.90;;;10.00;99.90;9.90;100811.00;;;;4930826;28;88791;-72
2024/02/15 04:37:09;;;;;;;1.13;1.00;;;10.00;99.90;9.90;100810.00;;;;4910426;28;89739;-74
2024/02/15 04:39:38;;;;;;;1.27;1.13;;;10.00;99.90;9.90;100802.00;;;;4929647;28;88145;-74
2024/02/15 04:42:06;;;;;;;1.73;1.30;;;10.00;99.90;9.90;100796.00;;;;4930529;28;87829;-72
2024/02/15 04:44:34;;;;;;;1.37;1.10;;;10.00;99.90;9.90;100805.00;;;;4928225;28;88112;-76
2024/02/15 04:47:01;;;;;;;1.77;1.43;;;10.00;99.90;9.90;100796.00;;;;4931950;28;88503;-76
2024/02/15 04:49:28;;;;;;;5.10;1.90;;;10.00;99.90;9.90;100800.00;;;;4929881;28;89645;-75
2024/02/15 04:51:55;;;;;;;1.67;1.53;;;10.00;99.90;10.00;100797.00;;;;4930910;28;87281;-77
2024/02/15 04:54:21;;;;;;;1.47;0.90;;;10.00;99.90;10.00;100801.00;;;;4911413;28;88541;-77
2024/02/15 04:56:47;;;;;;;1.47;1.30;;;10.10;99.90;10.00;100799.00;;;;4950024;28;89338;-77
2024/02/15 04:59:15;;;;;;;2.50;1.10;;;10.10;99.90;10.00;100805.00;;;;4934652;28;89122;-79
2024/02/15 05:01:45;;;;;;;2.17;1.30;;;10.30;99.90;10.00;100807.00;;;;4930730;28;88861;-78
2024/02/15 05:04:13;;;;;;;2.30;1.20;;;10.10;99.90;10.00;100806.00;;;;4930712;28;88026;-77
2024/02/15 05:06:39;;;;;;;1.27;0.80;;;10.10;99.90;10.00;100801.00;;;;4934857;28;88252;-75
2024/02/15 05:09:10;;;;;;;1.77;0.93;;;10.10;99.90;10.00;100800.00;;;;4929603;28;88143;-78
2024/02/15 05:11:38;;;;;;;0.90;0.80;;;10.10;99.90;10.00;100801.00;;;;4933212;28;87891;-78
2024/02/15 05:14:06;;;;;;;2.17;1.13;;;10.10;99.90;10.00;100801.00;;;;4912029;28;89280;-76
2024/02/15 05:16:43;;;;;;;1.30;1.20;;;10.10;99.90;10.10;100809.00;;;;4921040;28;89891;-76
2024/02/15 05:19:11;;;;;;;1.90;1.13;;;10.00;99.90;10.10;100816.00;;;;4933761;28;90347;-74
2024/02/15 05:21:37;;;;;;;2.20;1.67;;;10.30;99.90;10.10;100811.00;;;;4930350;28;110606;-71
2024/02/15 05:24:05;;;;;;;1.77;1.10;;;10.10;99.90;10.10;100817.00;;;;4927609;28;89515;-72
2024/02/15 05:26:30;;;;;;;1.50;1.27;;;10.20;99.90;10.10;100819.00;;;;4926990;28;107268;-73
2024/02/15 05:28:56;;;;;;;1.80;1.43;;;10.10;99.90;10.10;100810.00;;;;4929246;28;88125;-73
2024/02/15 05:31:25;;;;;;;1.97;1.77;;;10.30;99.90;10.10;100815.00;;;;4924441;28;109972;-72
2024/02/15 05:33:51;;;;;;;2.40;1.40;;;10.10;99.90;10.10;100821.00;;;;4930480;28;87756;-74
2024/02/15 05:36:20;;;;;;;1.73;1.17;;;10.10;99.90;10.10;100814.00;;;;4918961;28;90421;-71
2024/02/15 05:38:48;;;;;;;1.93;1.40;;;10.10;99.90;10.10;100808.00;;;;4936937;28;87806;-73
2024/02/15 05:41:14;;;;;;;1.83;1.20;;;10.10;99.90;10.10;100810.00;;;;4933349;28;87692;-71
2024/02/15 05:43:43;;;;;;;1.27;1.03;;;10.20;99.90;10.10;100807.00;;;;4934152;28;109016;-71
2024/02/15 05:46:10;;;;;;;1.60;1.40;;;10.20;99.90;10.10;100804.00;;;;4932071;28;88066;-73
2024/02/15 05:48:37;;;;;;;2.17;1.27;;;10.10;99.90;10.10;100808.00;;;;4931152;28;108064;-74
2024/02/15 05:51:08;;;;;;;1.17;0.93;;;10.10;99.90;10.00;100797.00;;;;4932797;28;88036;-72
2024/02/15 05:53:35;;;;;;;1.10;1.00;;;10.10;99.90;10.00;100803.00;;;;4934170;28;87907;-72
2024/02/15 05:56:04;;;;;;;2.73;1.63;;;10.10;99.90;10.00;100802.00;;;;4929479;28;88165;-72
2024/02/15 05:58:31;;;;;;;1.00;0.70;;;10.10;99.90;10.00;100809.00;;;;4936856;28;88578;-71
2024/02/15 06:01:01;;;;;;;0.80;0.80;;;10.10;99.90;10.00;100814.00;;;;4935842;28;88136;-70
2024/02/15 06:03:28;;;;;;;1.73;1.57;;;10.10;99.90;10.10;100817.00;;;;4933921;28;87676;-73
2024/02/15 06:05:58;;;;;;;1.47;1.30;;;10.10;99.90;10.10;100816.00;;;;4932167;28;87665;-71
2024/02/15 06:08:25;;;;;;;3.97;2.27;;;10.20;99.90;10.10;100825.00;;;;4929257;28;88199;-72
2024/02/15 06:10:52;;;;;;;2.90;2.03;;;10.20;99.90;10.10;100823.00;;;;4930425;28;103796;-72
2024/02/15 06:13:18;;;;;;;3.27;2.57;;;10.20;99.90;10.10;100833.00;;;;4935054;28;89066;-70
2024/02/15 06:15:44;;;;;;;1.83;1.50;;;10.10;99.90;10.10;100834.00;;;;4937386;28;89068;-73
2024/02/15 06:18:14;;;;;;;3.10;2.73;;;10.20;99.90;10.10;100837.00;;;;4934583;28;117645;-70
2024/02/15 06:20:40;;;;;;;3.87;2.87;;;10.20;99.90;10.10;100834.00;;;;4931109;28;87710;-69
2024/02/15 06:23:07;;;;;;;1.53;1.43;;;10.20;99.90;10.10;100833.00;;;;4929706;28;88030;-70
2024/02/15 06:25:34;;;;;;;2.50;1.80;;;10.20;99.90;10.10;100827.00;;;;4930171;28;88854;-70
2024/02/15 06:28:06;;;;;;;1.63;1.27;;;10.20;99.90;10.20;100845.00;;;;4929593;28;88808;-70
2024/02/15 06:41:33;;;;;;;1.93;1.10;;;10.30;99.90;10.20;100833.00;;;;4926668;28;88001;-70
2024/02/15 06:43:59;;;;;;;1.43;1.10;;;10.30;99.90;10.20;100838.00;;;;4928384;28;88312;-71
2024/02/15 06:46:25;;;;;;;1.40;0.93;;;10.30;99.90;10.20;100843.00;;;;4928252;28;97123;-72
2024/02/15 06:48:52;;;;;;;1.93;1.43;;;10.60;99.90;10.20;100844.00;;;;4935582;28;116442;-72
2024/02/15 06:51:18;;;;;;;3.40;0.93;;;10.30;99.90;10.30;100847.00;;;;4928854;28;87945;-72
2024/02/15 06:53:44;;;;;;;1.33;0.90;;;10.30;99.90;10.30;100857.00;;;;4936920;28;87931;-72
2024/02/15 06:56:10;;;;;;;2.07;1.47;;;10.40;99.90;10.30;100853.00;;;;4930864;28;107056;-72
2024/02/15 06:58:36;;;;;;;0.93;0.90;;;10.40;99.90;10.30;100856.00;;;;4937113;28;87577;-72
2024/02/15 07:01:02;;;;;;;1.00;0.90;;;10.40;99.90;10.30;100850.00;;;;4933127;28;110808;-72
2024/02/15 07:03:32;;;;;;;2.07;1.23;;;10.40;99.90;10.30;100853.00;;;;4933036;28;88904;-72
2024/02/15 07:05:57;;;;;;;1.77;1.00;;;10.40;99.90;10.40;100860.00;;;;4932092;28;89241;-72
2024/02/15 07:08:24;;;;;;;0.73;0.57;;;10.40;99.90;10.40;100855.00;;;;4932787;28;118236;-73
2024/02/15 07:10:51;;;;;;;0.97;0.90;;;10.40;99.90;10.40;100858.00;;;;4934200;28;88014;-71
2024/02/15 07:13:17;;;;;;;1.37;1.17;;;10.50;99.90;10.40;100859.00;;;;4936383;28;88022;-72
2024/02/15 07:15:45;;;;;;;1.10;0.90;;;10.10;99.90;10.40;100853.00;;;;4933600;28;88422;-72
2024/02/15 07:18:16;;;;;;;1.87;1.27;;;10.50;99.90;10.40;100855.00;;;;4935693;28;88749;-72
2024/02/15 07:20:42;;;;;;;1.13;1.03;;;10.50;99.90;10.50;100852.00;;;;4934412;28;87114;-72
2024/02/15 07:23:07;;;;;;;1.70;0.93;;;10.50;99.90;10.50;100858.00;;;;4933887;28;108949;-72
2024/02/15 07:25:33;;;;;;;2.17;1.30;;;10.50;99.90;10.50;100861.00;;;;4914168;28;116315;-70
2024/02/15 07:27:59;;;;;;;1.57;1.00;;;10.60;99.90;10.50;100864.00;;;;4931744;28;88741;-71
2024/02/15 07:30:24;;;;;;;2.80;1.33;;;10.60;99.90;10.50;100862.00;;;;4931136;28;109739;-70
2024/02/15 07:32:51;;;;;;;1.53;1.07;;;10.60;99.90;10.50;100865.00;;;;4931522;28;87900;-70
2024/02/15 07:35:19;;;;;;;1.23;1.10;;;10.60;99.90;10.50;100866.00;;;;4932771;28;88205;-70
2024/02/15 07:37:55;;;;;;;2.10;1.03;;;10.60;99.90;10.60;100861.00;;;;4938173;28;88472;-73
2024/02/15 07:40:22;;;;;;;2.47;1.30;;;10.60;99.90;10.60;100874.00;;;;4936455;28;87895;-70
2024/02/15 07:42:49;;;;;;;1.90;1.73;;;10.70;99.90;10.60;100867.00;;;;4936154;28;87853;-70
2024/02/15 07:45:14;;;;;;;1.20;1.10;;;10.70;99.90;10.60;100868.00;;;;4935922;28;87630;-72
2024/02/15 07:47:40;;;;;;;1.60;1.50;;;10.70;99.90;10.60;100869.00;;;;4935610;28;115761;-73
2024/02/15 07:50:09;;;;;;;2.03;1.33;;;10.70;99.90;10.60;100866.00;;;;4934008;28;109510;-71
2024/02/15 07:52:35;;;;;;;2.70;2.10;;;10.70;99.90;10.70;100871.00;;;;4929076;28;88871;-73
2024/02/15 07:55:07;;;;;;;1.77;1.23;;;10.70;99.90;10.70;100875.00;;;;4932365;28;88570;-71
2024/02/15 07:57:33;;;;;;;1.60;1.50;;;10.80;99.90;10.70;100875.00;;;;4933310;28;88117;-71
2024/02/15 07:59:59;;;;;;;2.60;2.03;;;10.80;99.90;10.80;100859.00;;;;4933350;28;87929;-71
2024/02/15 08:02:28;;;;;;;1.70;1.40;;;10.80;99.90;10.80;100859.00;;;;4933173;28;108354;-73
2024/02/15 08:04:54;;;;;;;2.27;1.47;;;10.80;99.90;10.80;100859.00;;;;4933713;28;89132;-71
2024/02/15 08:07:20;;;;;;;1.40;1.10;;;10.80;99.90;10.80;100867.00;;;;4934508;28;90031;-74
2024/02/15 08:09:50;;;;;;;2.43;1.90;;;10.90;99.90;10.90;100860.00;;;;4933028;28;87877;-74
2024/02/15 08:12:16;;;;;;;1.93;1.47;;;10.90;99.90;10.90;100851.00;;;;4933659;28;88619;-71
2024/02/15 08:14:42;;;;;;;1.37;1.27;;;11.00;99.90;10.90;100858.00;;;;4935423;28;89120;-71
2024/02/15 08:17:08;;;;;;;1.10;0.97;;;11.00;99.90;11.00;100845.00;;;;4931950;28;89098;-72
2024/02/15 08:19:34;;;;;;;1.10;1.00;;;11.00;99.90;11.10;100850.00;;;;4933965;28;87899;-71
2024/02/15 08:22:05;;;;;;;2.23;1.07;;;11.10;99.90;11.10;100856.00;;;;4933967;28;87712;-71
2024/02/15 08:24:31;;;;;;;1.10;1.00;;;11.20;99.90;11.20;100845.00;;;;4933813;28;105150;-71
2024/02/15 08:26:59;;;;;;;0.80;0.73;;;11.30;99.90;11.30;100847.00;;;;4932293;28;118693;-72
2024/02/15 08:29:25;;;;;;;2.07;1.53;;;11.30;99.90;11.30;100852.00;;;;4933856;28;87891;-73
2024/02/15 08:31:51;;;;;;;2.27;1.37;;;11.30;99.90;11.40;100844.00;;;;4932545;28;87769;-74
2024/02/15 08:34:18;;;;;;;1.10;1.00;;;11.40;99.90;11.40;100848.00;;;;4915778;28;104896;-74
2024/02/15 08:36:44;;;;;;;1.30;1.20;;;11.50;99.90;11.50;100850.00;;;;4928448;28;88134;-73
2024/02/15 08:39:11;;;;;;;2.03;1.50;;;11.60;99.90;11.60;100848.00;;;;4927500;28;108291;-71
2024/02/15 08:41:38;;;;;;;0.73;0.73;;;11.70;99.90;11.70;100844.00;;;;4934030;28;88638;-72
2024/02/15 08:44:09;;;;;;;4.10;1.23;;;11.70;99.90;11.80;100856.00;;;;4946395;28;89363;-74
2024/02/15 08:46:41;;;;;;;1.20;0.93;;;11.80;99.90;12.00;100859.00;;;;4928142;28;87874;-77
2024/02/15 08:49:12;;;;;;;2.83;2.07;;;12.00;99.90;12.10;100857.00;;;;4928279;28;110382;-76
2024/02/15 08:51:37;;;;;;;1.00;1.00;;;12.10;99.90;12.40;100862.00;;;;4932235;28;88334;-76
2024/02/15 08:54:03;;;;;;;1.10;1.00;;;12.30;99.90;12.50;100857.00;;;;4936371;28;116639;-73
2024/02/15 08:56:29;;;;;;;1.23;1.00;;;12.50;99.90;12.60;100860.00;;;;4933940;28;116066;-77
2024/02/15 08:58:54;;;;;;;0.87;0.80;;;12.60;99.90;12.70;100860.00;;;;4929840;28;109387;-78
2024/02/15 09:01:20;;;;;;;1.33;0.73;;;12.70;99.90;12.70;100856.00;;;;4934890;28;107859;-74
2024/02/15 09:03:46;;;;;;;1.40;0.90;;;12.80;99.90;12.80;100861.00;;;;4930717;28;117675;-75
2024/02/15 09:06:11;;;;;;;2.23;1.10;;;12.70;99.90;12.80;100864.00;;;;4925218;28;115707;-77
2024/02/15 09:08:38;;;;;;;3.40;1.17;;;12.80;99.90;12.90;100858.00;;;;4924117;28;88235;-76
2024/02/15 09:11:03;;;;;;;1.10;1.00;;;12.90;99.90;12.90;100864.00;;;;4934115;28;88444;-73
2024/02/15 09:13:29;;;;;;;1.47;1.10;;;12.90;99.90;13.00;100872.00;;;;4929753;28;118345;-73
2024/02/15 09:15:55;;;;;;;1.53;1.13;;;13.00;99.90;13.00;100867.00;;;;4932648;28;114914;-74
2024/02/15 09:18:22;;;;;;;2.33;0.97;;;13.00;99.90;13.00;100877.00;;;;4931783;28;109461;-73
2024/02/15 09:20:55;;;;;;;0.90;0.80;;;13.00;99.90;12.90;100870.00;;;;4929906;28;87804;-72
2024/02/15 09:23:23;;;;;;;1.20;0.90;;;13.00;99.90;12.90;100862.00;;;;4933708;28;88670;-73
2024/02/15 09:25:51;;;;;;;2.10;1.27;;;13.00;99.90;12.90;100864.00;;;;4929096;28;88270;-72
2024/02/15 09:28:21;;;;;;;1.07;0.87;;;12.90;99.90;12.90;100861.00;;;;4934049;28;88066;-73
2024/02/15 09:30:51;;;;;;;1.47;1.33;;;12.90;99.90;13.00;100868.00;;;;4950759;28;88547;-72
2024/02/15 09:33:20;;;;;;;1.43;1.10;;;13.00;99.90;13.00;100866.00;;;;4931378;28;88108;-72
2024/02/15 09:35:46;;;;;;;2.63;1.42;;;13.00;99.90;13.10;100857.00;;;;4932866;28;88599;-72
2024/02/15 09:38:13;;;;;;;2.33;1.50;;;13.10;99.90;13.20;100863.00;;;;4931108;28;87767;-72
2024/02/15 09:40:40;;;;;;;1.30;1.20;;;13.10;99.90;13.20;100860.00;;;;4932299;28;88032;-72
2024/02/15 09:43:06;;;;;;;1.88;1.13;;;13.20;99.90;13.30;100867.00;;;;4927265;28;88070;-73
2024/02/15 09:45:34;;;;;;;2.10;1.10;;;13.30;99.90;13.40;100865.00;;;;4927682;28;118021;-72
2024/02/15 09:48:06;;;;;;;1.30;1.00;;;13.40;99.90;13.50;100863.00;;;;4933241;28;87188;-72
2024/02/15 09:50:35;;;;;;;1.60;1.33;;;13.50;99.90;13.60;100866.00;;;;4931262;28;87758;-73
2024/02/15 09:53:06;;;;;;;2.13;1.08;;;13.50;99.90;13.70;100860.00;;;;4928868;28;88992;-73
2024/02/15 09:55:34;;;;;;;2.17;1.08;;;14.00;99.90;13.70;100870.00;;;;4933351;28;91157;-72
2024/02/15 09:58:00;;;;;;;2.33;1.25;;;13.70;99.90;13.80;100871.00;;;;4932733;28;95362;-75
2024/02/15 10:00:26;;;;;;;1.50;1.00;;;13.80;99.90;13.90;100865.00;;;;4931318;28;88243;-73
2024/02/15 10:02:53;;;;;;;1.13;1.00;;;13.90;99.90;13.90;100870.00;;;;4930896;28;89382;-70
2024/02/15 10:05:19;;;;;;;1.50;1.17;;;13.90;99.90;13.90;100867.00;;;;4931621;28;110792;-70
2024/02/15 10:07:46;;;;;;;1.30;1.15;;;13.90;99.90;13.90;100878.00;;;;4932910;28;100910;-73
2024/02/15 10:10:20;;;;;;;1.10;0.75;;;13.90;99.90;13.90;100872.00;;;;4931466;28;88282;-71
2024/02/15 10:12:55;;;;;;;2.03;0.90;;;13.90;99.90;13.90;100864.00;;;;4933375;28;88274;-72
2024/02/15 10:15:37;;;;;;;1.15;0.77;;;13.90;99.90;13.90;100874.00;;;;4933662;28;88045;-74
2024/02/15 10:18:08;;;;;;;3.90;1.27;;;13.90;99.90;14.00;100871.00;;;;4933559;28;97649;-75
2024/02/15 10:20:35;;;;;;;3.55;1.30;;;13.90;99.90;14.00;100877.00;;;;4933311;28;88947;-73
2024/02/15 10:23:09;;;;;;;1.48;1.13;;;13.90;99.90;14.00;100865.00;;;;4930835;28;88104;-75
2024/02/15 10:25:35;;;;;;;4.28;1.02;;;14.00;99.90;14.00;100869.00;;;;4937402;28;90147;-74
2024/02/15 10:28:08;;;;;;;1.10;1.00;;;14.00;99.90;14.00;100875.00;;;;4937010;28;87839;-73
2024/02/15 10:30:39;;;;;;;1.17;0.63;;;14.00;99.90;14.00;100874.00;;;;4930115;28;88054;-71
2024/02/15 10:33:07;;;;;;;1.05;0.95;;;14.00;99.90;14.10;100875.00;;;;4927318;28;107738;-74
2024/02/15 10:35:36;;;;;;;1.42;1.25;;;14.00;99.90;14.10;100870.00;;;;4928259;28;88680;-74
2024/02/15 10:38:10;;;;;;;1.50;1.20;;;14.20;99.90;14.20;100870.00;;;;4924106;28;87255;-72
2024/02/15 10:40:43;;;;;;;2.83;1.05;;;14.10;99.90;14.20;100881.00;;;;4932366;28;87784;-73
2024/02/15 10:43:12;;;;;;;4.50;1.48;;;14.20;99.90;14.30;100877.00;;;;4929407;28;89731;-70
2024/02/15 10:45:39;;;;;;;2.28;1.27;;;14.30;99.90;14.30;100877.00;;;;4926530;28;88988;-72
2024/02/15 10:48:09;;;;;;;1.42;1.02;;;14.30;99.90;14.30;100875.00;;;;4931603;28;88089;-70
2024/02/15 10:50:36;;;;;;;1.15;0.77;;;14.40;99.90;14.30;100873.00;;;;4934383;28;87670;-70
2024/02/15 10:53:18;;;;;;;1.48;0.90;;;14.30;99.90;14.30;100868.00;;;;4928162;28;87941;-71
2024/02/15 10:56:02;;;;;;;0.82;0.75;;;14.30;99.90;14.40;100870.00;;;;4931407;28;87677;-72
2024/02/15 10:58:41;;;;;;;1.42;0.70;;;14.40;99.90;14.40;100869.00;;;;4935537;28;87834;-69
2024/02/15 11:01:10;;;;;;;1.17;1.08;;;14.40;99.90;14.50;100866.00;;;;4928432;28;88011;-71
2024/02/15 11:03:44;;;;;;;0.50;0.50;;;14.50;99.90;14.60;100877.00;;;;4929295;28;115964;-70